Terminal Aerodrome Forecast
Issued by NWS Omaha/Valley, NE

Home | Current Version | Previous Version | Graphics & Text | Print | Product List | Glossary On
Versions: 1 2 3 4 5 6 7 8 9 10 11 12 13 14 15 16 17 18 19 20 21 22 23 24 25 26 27 28 29
480
FTUS43 KOAX 032322
TAFOFK
TAF
KOFK 032322Z 0400/0424 18008KT P6SM OVC006
     FM040200 19007KT 4SM BR OVC007
     FM041000 23005KT 4SM BR BKN090
     FM041300 26007KT P6SM SCT060
     FM041700 29010KT P6SM FEW200=

USA.gov is the U.S. government's official web portal to all federal, state and local government web resources and services.